createdAt,value
2023-07-18T00:01:38.824Z,98554.22
2023-07-18T00:04:09.612Z,98554.66
2023-07-18T00:06:42.086Z,98552.31
2023-07-18T00:09:10.108Z,98546.41
2023-07-18T00:11:38.158Z,98548.78
2023-07-18T00:14:06.167Z,98550.34
2023-07-18T00:16:34.016Z,98555.06
2023-07-18T00:19:01.535Z,98555.78
2023-07-18T00:21:28.991Z,98561.31
2023-07-18T00:23:57.485Z,98560.13
2023-07-18T00:26:25.774Z,98563.72
2023-07-18T00:28:56.130Z,98561.69
2023-07-18T00:31:25.370Z,98568.81
2023-07-18T00:33:52.873Z,98571.16
2023-07-18T00:36:23.214Z,98568.31
2023-07-18T00:38:50.742Z,98565.78
2023-07-18T00:41:18.395Z,98561.69
2023-07-18T00:43:46.051Z,98559.38
2023-07-18T00:46:15.037Z,98552.88
2023-07-18T00:48:42.374Z,98566.44
2023-07-18T00:51:10.792Z,98552.78
2023-07-18T00:53:40.792Z,98555.22
2023-07-18T00:56:10.006Z,98554.88
2023-07-18T00:58:37.778Z,98559.59
2023-07-18T01:01:06.387Z,98553.25
2023-07-18T01:03:36.841Z,98550.16
2023-07-18T01:06:05.315Z,98550.16
2023-07-18T01:08:32.890Z,98550.59
2023-07-18T01:11:00.947Z,98552.88
2023-07-18T01:13:28.576Z,98542.78
2023-07-18T01:15:56.126Z,98539.66
2023-07-18T01:18:23.414Z,98542.50
2023-07-18T01:20:50.870Z,98538.56
2023-07-18T01:23:18.449Z,98549.25
2023-07-18T01:25:46.076Z,98544.84
2023-07-18T01:28:14.626Z,98548.44
2023-07-18T01:30:42.260Z,98540.00
2023-07-18T01:33:09.610Z,98543.53
2023-07-18T01:35:38.742Z,98531.97
2023-07-18T01:38:07.118Z,98534.72
2023-07-18T01:40:34.554Z,98537.94
2023-07-18T01:43:04.978Z,98534.66
2023-07-18T01:45:38.629Z,98535.72
2023-07-18T01:48:07.851Z,98525.75
2023-07-18T01:50:35.533Z,98527.31
2023-07-18T01:53:05.370Z,98522.75
2023-07-18T01:55:32.859Z,98516.38
2023-07-18T01:58:04.603Z,98520.88
2023-07-18T02:04:19.847Z,98517.34
2023-07-18T02:06:47.632Z,98511.53
2023-07-18T02:09:15.020Z,98512.28
2023-07-18T02:11:42.483Z,98513.72
2023-07-18T02:14:09.768Z,98514.84
2023-07-18T02:16:37.364Z,98514.47
2023-07-18T02:19:05.339Z,98508.16
2023-07-18T02:21:35.814Z,98511.75
2023-07-18T02:24:04.774Z,98515.03
2023-07-18T02:26:32.276Z,98508.22
2023-07-18T02:28:59.574Z,98503.50
2023-07-18T02:31:27.053Z,98491.00
2023-07-18T02:33:55.179Z,98492.50
2023-07-18T02:36:23.317Z,98494.22
2023-07-18T02:38:50.623Z,98498.13
2023-07-18T02:41:19.292Z,98499.88
2023-07-18T02:43:47.548Z,98495.13
2023-07-18T02:46:15.234Z,98497.38
2023-07-18T02:48:43.683Z,98499.03
2023-07-18T02:51:12.103Z,98490.91
2023-07-18T02:53:42.822Z,98495.13
2023-07-18T02:56:10.475Z,98495.22
2023-07-18T02:58:38.008Z,98493.91
2023-07-18T03:01:05.651Z,98499.28
2023-07-18T03:03:34.193Z,98500.31
2023-07-18T03:06:02.208Z,98502.50
2023-07-18T03:08:33.846Z,98498.41
2023-07-18T03:11:07.663Z,98509.25
2023-07-18T03:13:35.170Z,98509.66
2023-07-18T03:16:05.664Z,98513.59
2023-07-18T03:18:33.720Z,98502.13
2023-07-18T03:21:01.506Z,98509.63
2023-07-18T03:23:29.002Z,98507.22
2023-07-18T03:25:56.851Z,98500.91
2023-07-18T03:28:24.444Z,98503.78
2023-07-18T03:30:51.853Z,98506.75
2023-07-18T03:33:19.228Z,98504.03
2023-07-18T03:35:49.427Z,98501.00
2023-07-18T03:38:17.048Z,98489.81
2023-07-18T03:40:47.836Z,98499.69
2023-07-18T03:43:15.436Z,98490.53
2023-07-18T03:45:42.753Z,98497.28
2023-07-18T03:48:10.347Z,98495.38
2023-07-18T03:50:37.994Z,98495.03
2023-07-18T03:53:05.460Z,98492.25
2023-07-18T03:55:32.857Z,98483.53
2023-07-18T03:58:03.253Z,98484.53
2023-07-18T04:00:30.718Z,98492.63
2023-07-18T04:02:59.081Z,98485.28
2023-07-18T04:05:29.865Z,98485.59
2023-07-18T04:07:59.657Z,98476.66
2023-07-18T04:10:27.114Z,98479.03
2023-07-18T04:12:54.371Z,98479.03
2023-07-18T04:15:24.554Z,98482.25
2023-07-18T04:17:52.004Z,98474.41
2023-07-18T04:20:21.327Z,98476.34
2023-07-18T04:22:49.000Z,98474.00
2023-07-18T04:25:16.637Z,98481.47
2023-07-18T04:27:45.882Z,98474.00
2023-07-18T04:30:13.697Z,98467.31
2023-07-18T04:32:44.479Z,98467.59
2023-07-18T04:35:11.968Z,98474.31
2023-07-18T04:37:39.407Z,98468.03
2023-07-18T04:40:07.728Z,98472.03
2023-07-18T04:42:35.518Z,98472.03
2023-07-18T04:45:06.205Z,98462.59
2023-07-18T04:47:34.523Z,98467.31
2023-07-18T04:50:01.969Z,98470.50
2023-07-18T04:52:29.729Z,98469.28
2023-07-18T04:54:57.349Z,98462.94
2023-07-18T04:57:25.651Z,98464.59
2023-07-18T04:59:52.984Z,98450.88
2023-07-18T05:02:20.844Z,98455.22
2023-07-18T05:04:48.270Z,98457.63
2023-07-18T05:07:16.502Z,98452.94
2023-07-18T05:09:43.767Z,98457.69
2023-07-18T05:12:11.263Z,98454.94
2023-07-18T05:14:38.657Z,98455.72
2023-07-18T05:17:06.264Z,98454.53
2023-07-18T05:19:33.678Z,98447.09
2023-07-18T05:22:01.185Z,98441.22
2023-07-18T05:24:28.457Z,98450.81
2023-07-18T05:26:55.911Z,98447.59
2023-07-18T05:29:25.517Z,98449.25
2023-07-18T05:31:53.066Z,98449.16
2023-07-18T05:34:20.500Z,98445.31
2023-07-18T05:36:48.008Z,98454.63
2023-07-18T05:39:15.303Z,98446.91
2023-07-18T05:41:42.797Z,98447.09
2023-07-18T05:44:11.573Z,98448.94
2023-07-18T05:46:41.247Z,98447.22
2023-07-18T05:49:09.143Z,98452.56
2023-07-18T05:51:36.537Z,98451.06
2023-07-18T05:54:05.923Z,98448.44
2023-07-18T05:56:34.229Z,98446.09
2023-07-18T05:59:02.418Z,98439.94
2023-07-18T06:01:29.764Z,98441.22
2023-07-18T06:03:57.770Z,98434.94
2023-07-18T06:06:28.473Z,98434.56
2023-07-18T06:08:56.565Z,98431.00
2023-07-18T06:11:27.163Z,98431.00
2023-07-18T06:13:54.690Z,98428.22
2023-07-18T06:16:22.194Z,98428.19
2023-07-18T06:18:49.985Z,98424.28
2023-07-18T06:21:17.844Z,98425.88
2023-07-18T06:23:47.625Z,98427.00
2023-07-18T06:26:15.583Z,98431.19
2023-07-18T06:28:43.203Z,98429.31
2023-07-18T06:31:12.184Z,98423.31
2023-07-18T06:33:40.450Z,98425.66
2023-07-18T06:36:08.153Z,98425.19
2023-07-18T06:38:35.775Z,98423.13
2023-07-18T06:41:03.368Z,98419.94
2023-07-18T06:43:31.048Z,98417.63
2023-07-18T06:45:58.720Z,98409.53
2023-07-18T06:48:26.566Z,98421.88
2023-07-18T06:50:57.988Z,98422.63
2023-07-18T06:53:25.494Z,98421.06
2023-07-18T06:55:56.239Z,98423.25
2023-07-18T06:58:23.766Z,98417.41
2023-07-18T07:00:51.947Z,98415.13
2023-07-18T07:03:19.733Z,98409.53
2023-07-18T07:05:47.539Z,98414.97
2023-07-18T07:08:15.307Z,98411.66
2023-07-18T07:10:44.023Z,98403.94
2023-07-18T07:13:14.847Z,98409.25
2023-07-18T07:15:42.711Z,98406.75
2023-07-18T07:18:10.449Z,98395.25
2023-07-18T07:20:38.122Z,98401.50
2023-07-18T07:23:05.957Z,98411.94
2023-07-18T07:25:37.151Z,98397.25
2023-07-18T07:28:06.524Z,98388.91
2023-07-18T07:30:34.233Z,98395.13
2023-07-18T07:33:02.018Z,98388.34
2023-07-18T07:35:30.913Z,98386.19
2023-07-18T07:37:58.688Z,98382.94
2023-07-18T07:40:26.566Z,98371.69
2023-07-18T07:42:54.167Z,98373.19
